createdAt,value
2022-08-05T00:00:34.218Z,19.03
2022-08-05T00:03:49.848Z,18.99
2022-08-05T00:06:52.143Z,18.99
2022-08-05T00:09:54.618Z,19.01
2022-08-05T00:12:57.128Z,18.96
2022-08-05T00:16:00.414Z,18.96
2022-08-05T00:19:03.155Z,18.89
2022-08-05T00:22:05.274Z,18.86
2022-08-05T00:25:12.696Z,18.80
2022-08-05T00:28:15.827Z,18.87
2022-08-05T00:31:54.264Z,18.84
2022-08-05T00:35:05.263Z,18.90
2022-08-05T00:38:09.474Z,18.90
2022-08-05T00:41:11.804Z,18.89
2022-08-05T00:44:14.577Z,18.84
2022-08-05T00:47:16.584Z,18.80
2022-08-05T00:50:21.054Z,18.77
2022-08-05T00:53:59.833Z,18.71
2022-08-05T00:56:51.445Z,18.70
2022-08-05T00:59:54.099Z,18.69
2022-08-05T01:02:59.800Z,18.67
2022-08-05T01:06:02.648Z,18.64
2022-08-05T01:09:07.602Z,18.59
2022-08-05T01:12:18.018Z,18.52
2022-08-05T01:15:36.166Z,18.50
2022-08-05T01:18:56.200Z,18.53
2022-08-05T01:22:15.368Z,18.52
2022-08-05T01:25:42.053Z,18.45
2022-08-05T01:29:05.080Z,18.37
2022-08-05T01:32:12.128Z,18.33
2022-08-05T01:35:51.558Z,18.35
2022-08-05T01:38:48.434Z,18.32
2022-08-05T01:41:53.373Z,18.32
2022-08-05T01:44:59.160Z,18.35
2022-08-05T01:48:03.840Z,18.32
2022-08-05T01:51:14.695Z,18.29
2022-08-05T01:54:19.359Z,18.26
2022-08-05T01:58:14.798Z,18.25
2022-08-05T02:00:58.869Z,18.26
2022-08-05T02:04:01.724Z,18.26
2022-08-05T02:07:04.313Z,18.29
2022-08-05T02:10:11.229Z,18.25
2022-08-05T02:13:28.688Z,18.28
2022-08-05T02:16:55.547Z,18.25
2022-08-05T02:20:02.129Z,18.18
2022-08-05T02:23:10.782Z,18.13
2022-08-05T02:26:17.179Z,18.09
2022-08-05T02:29:58.182Z,18.05
2022-08-05T02:32:54.328Z,17.96
2022-08-05T02:36:00.638Z,17.94
2022-08-05T02:39:08.702Z,17.98
2022-08-05T02:42:11.629Z,17.88
2022-08-05T02:45:52.688Z,17.81
2022-08-05T02:48:54.471Z,17.78
2022-08-05T02:52:04.089Z,17.74
2022-08-05T02:55:10.922Z,17.65
2022-08-05T02:58:16.753Z,17.57
2022-08-05T03:01:25.576Z,17.54
2022-08-05T03:04:29.994Z,17.53
2022-08-05T03:08:00.191Z,17.45
2022-08-05T03:11:41.125Z,17.41
2022-08-05T03:14:16.687Z,17.33
2022-08-05T03:17:20.248Z,17.33
2022-08-05T03:20:24.540Z,17.28
2022-08-05T03:23:28.038Z,17.28
2022-08-05T03:26:32.386Z,17.27
2022-08-05T03:29:45.444Z,17.26
2022-08-05T03:32:58.509Z,17.21
2022-08-05T03:36:01.717Z,17.16
2022-08-05T03:39:13.194Z,17.17
2022-08-05T03:42:22.631Z,17.21
2022-08-05T03:45:29.798Z,17.10
2022-08-05T03:48:52.464Z,16.99
2022-08-05T03:52:50.622Z,16.96
2022-08-05T03:56:01.887Z,16.84
2022-08-05T03:58:55.488Z,16.84
2022-08-05T04:02:02.888Z,16.86
2022-08-05T04:05:09.601Z,16.82
2022-08-05T04:08:29.623Z,16.80
2022-08-05T04:11:50.685Z,16.80
2022-08-05T04:14:57.636Z,16.76
2022-08-05T04:18:07.886Z,16.70
2022-08-05T04:21:12.280Z,16.73
2022-08-05T04:24:27.625Z,16.69
2022-08-05T04:27:41.616Z,16.65
2022-08-05T04:30:46.067Z,16.66
2022-08-05T04:34:18.576Z,16.65
2022-08-05T04:37:12.889Z,16.59
2022-08-05T04:40:15.149Z,16.59
2022-08-05T04:43:22.002Z,16.51
2022-08-05T04:46:28.500Z,16.42
2022-08-05T04:49:38.368Z,16.47
2022-08-05T04:52:53.399Z,16.38
2022-08-05T04:56:32.275Z,16.36
2022-08-05T04:59:24.274Z,16.35
2022-08-05T05:02:41.724Z,16.32
2022-08-05T05:06:39.653Z,16.35
2022-08-05T05:09:07.538Z,16.35
2022-08-05T05:12:09.852Z,16.38
2022-08-05T05:15:13.667Z,16.42
2022-08-05T05:18:31.333Z,16.45
2022-08-05T05:21:36.236Z,16.53
2022-08-05T05:24:57.373Z,16.66
2022-08-05T05:28:01.832Z,16.80
2022-08-05T05:31:05.785Z,16.84
2022-08-05T05:34:11.245Z,16.96
2022-08-05T05:37:15.389Z,17.10
2022-08-05T05:40:20.366Z,17.20
2022-08-05T05:43:56.616Z,17.34
2022-08-05T05:46:51.173Z,17.55
2022-08-05T05:49:56.695Z,18.02
2022-08-05T05:53:03.381Z,18.45
2022-08-05T05:56:32.936Z,18.81
2022-08-05T05:59:40.280Z,19.14
2022-08-05T06:02:43.231Z,19.34
2022-08-05T06:05:45.430Z,19.57
2022-08-05T06:08:56.515Z,19.81
2022-08-05T06:11:59.931Z,19.97
2022-08-05T06:15:08.150Z,20.12
2022-08-05T06:18:10.363Z,20.15
2022-08-05T06:21:16.793Z,20.27
2022-08-05T06:24:22.514Z,20.25
2022-08-05T06:28:11.203Z,20.25
2022-08-05T06:30:51.878Z,20.22
2022-08-05T06:34:06.754Z,20.30
2022-08-05T06:37:10.758Z,20.46
2022-08-05T06:40:18.539Z,20.71
2022-08-05T06:43:57.273Z,21.01
2022-08-05T06:46:45.981Z,20.85
2022-08-05T06:50:01.648Z,20.88
2022-08-05T06:53:19.656Z,21.09
2022-08-05T06:56:28.215Z,21.08
2022-08-05T06:59:30.417Z,20.98
2022-08-05T07:02:44.846Z,21.04
2022-08-05T07:05:47.165Z,21.15
2022-08-05T07:08:51.948Z,21.45
2022-08-05T07:12:00.351Z,21.38
2022-08-05T07:15:34.171Z,21.60
2022-08-05T07:18:47.936Z,21.83
2022-08-05T07:22:00.480Z,21.88
2022-08-05T07:25:21.890Z,21.86
2022-08-05T07:28:25.340Z,21.72
2022-08-05T07:31:41.092Z,22.03
2022-08-05T07:34:50.238Z,22.71
2022-08-05T07:38:00.221Z,22.37
2022-08-05T07:41:34.959Z,21.62
2022-08-05T07:44:27.048Z,21.17
2022-08-05T07:47:30.429Z,20.92
2022-08-05T07:50:44.698Z,20.70
2022-08-05T07:53:50.494Z,20.78
2022-08-05T07:57:13.863Z,20.77
2022-08-05T08:00:15.650Z,20.61
2022-08-05T08:03:19.255Z,20.90
2022-08-05T08:06:23.695Z,20.91
2022-08-05T08:09:30.450Z,20.94
2022-08-05T08:12:48.657Z,21.18
2022-08-05T08:16:50.137Z,20.84
2022-08-05T08:20:10.050Z,21.12
2022-08-05T08:22:36.135Z,20.90
2022-08-05T08:26:00.611Z,21.41
2022-08-05T08:29:21.597Z,21.66
2022-08-05T08:32:27.802Z,21.53
2022-08-05T08:35:35.103Z,21.28
2022-08-05T08:38:43.657Z,21.22
2022-08-05T08:41:59.727Z,21.19
2022-08-05T08:45:23.562Z,21.19
2022-08-05T08:49:02.903Z,20.97
2022-08-05T08:52:03.248Z,20.87
2022-08-05T08:55:13.265Z,20.71
2022-08-05T08:58:16.926Z,20.58
2022-08-05T09:01:19.972Z,20.71
2022-08-05T09:04:22.587Z,20.77
2022-08-05T09:07:39.810Z,20.77
2022-08-05T09:10:56.044Z,20.51
2022-08-05T09:14:09.182Z,20.47
2022-08-05T09:17:43.108Z,20.51
2022-08-05T09:20:45.959Z,20.56
2022-08-05T09:24:03.089Z,20.64
2022-08-05T09:27:09.722Z,20.84
2022-08-05T09:30:16.476Z,21.04
2022-08-05T09:33:19.583Z,20.99
2022-08-05T09:36:27.620Z,21.19
2022-08-05T09:39:41.622Z,21.04
2022-08-05T09:42:50.069Z,20.90
2022-08-05T09:46:06.153Z,20.91
2022-08-05T09:49:23.217Z,20.77
2022-08-05T09:52:47.575Z,20.68
2022-08-05T09:56:03.780Z,20.36
2022-08-05T09:59:17.265Z,20.12
2022-08-05T10:02:32.235Z,20.08
2022-08-05T10:05:36.256Z,20.05
2022-08-05T10:08:38.968Z,20.39
2022-08-05T10:11:45.851Z,20.19
2022-08-05T10:14:49.968Z,20.06
2022-08-05T10:18:07.623Z,20.37
2022-08-05T10:21:11.881Z,20.44
2022-08-05T10:24:20.655Z,20.23
2022-08-05T10:28:09.400Z,20.17
2022-08-05T10:32:54.988Z,20.39
2022-08-05T10:34:16.912Z,20.16
2022-08-05T10:37:19.383Z,20.12
2022-08-05T10:40:29.411Z,19.93
2022-08-05T10:43:53.742Z,19.92
2022-08-05T10:46:57.124Z,20.16
2022-08-05T10:50:32.695Z,20.06
2022-08-05T10:53:42.674Z,20.05
2022-08-05T10:56:52.893Z,20.22
2022-08-05T11:00:20.435Z,20.00
2022-08-05T11:03:26.935Z,19.71
2022-08-05T11:06:31.404Z,19.50
2022-08-05T11:10:03.656Z,19.65
2022-08-05T11:13:57.973Z,20.09
2022-08-05T11:17:58.769Z,20.29
2022-08-05T11:20:52.332Z,20.27
2022-08-05T11:24:04.359Z,20.16
2022-08-05T11:27:51.365Z,20.10
2022-08-05T11:30:58.333Z,20.17
2022-08-05T11:34:06.386Z,20.12
2022-08-05T11:38:26.509Z,20.02
2022-08-05T11:41:14.071Z,20.15
2022-08-05T11:44:53.029Z,20.27
2022-08-05T11:47:49.922Z,20.54
2022-08-05T11:50:53.652Z,20.76
2022-08-05T11:53:56.334Z,20.81
2022-08-05T11:56:58.662Z,20.73
2022-08-05T12:00:03.980Z,20.90
2022-08-05T12:03:28.782Z,20.74
2022-08-05T12:06:35.928Z,20.84
2022-08-05T12:09:53.309Z,20.84
2022-08-05T12:13:04.180Z,20.88
2022-08-05T12:16:25.580Z,21.19
2022-08-05T12:20:25.399Z,21.60
2022-08-05T12:22:51.961Z,21.97
2022-08-05T12:25:56.909Z,23.81
2022-08-05T12:28:59.340Z,23.59
2022-08-05T12:32:07.411Z,22.51
2022-08-05T12:35:16.882Z,22.47
2022-08-05T12:38:30.191Z,22.79
2022-08-05T12:41:36.495Z,22.78
2022-08-05T12:44:47.601Z,23.05
2022-08-05T12:48:01.745Z,24.07
2022-08-05T12:51:21.689Z,23.84
2022-08-05T12:54:41.359Z,24.40
2022-08-05T12:58:38.671Z,24.01
2022-08-05T13:02:05.418Z,23.62
2022-08-05T13:04:31.220Z,23.38
2022-08-05T13:11:04.071Z,24.55
2022-08-05T13:14:24.917Z,23.30
2022-08-05T13:17:41.998Z,22.44
2022-08-05T13:20:44.851Z,21.86
2022-08-05T13:23:50.765Z,21.29
2022-08-05T13:26:54.524Z,21.02
2022-08-05T13:30:32.571Z,20.95
2022-08-05T13:34:23.040Z,20.76
2022-08-05T13:36:42.782Z,21.79
2022-08-05T13:40:15.992Z,22.29
2022-08-05T13:43:12.104Z,23.60
2022-08-05T13:46:16.523Z,23.76
2022-08-05T13:49:38.143Z,23.22
2022-08-05T13:52:49.903Z,22.24
2022-08-05T13:55:58.771Z,21.28
2022-08-05T13:59:05.965Z,20.78
2022-08-05T14:02:21.274Z,20.91
2022-08-05T14:05:29.546Z,21.05
2022-08-05T14:08:51.168Z,20.94
2022-08-05T14:12:00.374Z,20.83
2022-08-05T14:16:09.128Z,20.76
2022-08-05T14:18:30.027Z,20.73
2022-08-05T14:22:09.558Z,20.67
2022-08-05T14:24:55.031Z,20.60
2022-08-05T14:27:58.401Z,20.71
2022-08-05T14:31:01.388Z,20.66
2022-08-05T14:34:05.770Z,20.68
2022-08-05T14:37:14.352Z,20.94
2022-08-05T14:40:16.770Z,20.90
2022-08-05T14:43:20.362Z,20.99
2022-08-05T14:46:42.414Z,20.80
2022-08-05T14:49:59.569Z,20.63
2022-08-05T14:53:05.612Z,20.22
2022-08-05T14:56:08.282Z,20.27
2022-08-05T14:59:10.326Z,20.34
2022-08-05T15:02:24.197Z,20.26
2022-08-05T15:05:29.851Z,20.05
2022-08-05T15:08:58.482Z,20.00
2022-08-05T15:11:55.193Z,19.96
2022-08-05T15:14:58.877Z,19.82
2022-08-05T15:18:03.771Z,19.79
2022-08-05T15:21:09.883Z,19.89
2022-08-05T15:24:14.455Z,19.97
2022-08-05T15:27:18.864Z,19.96
2022-08-05T15:30:22.450Z,19.78
2022-08-05T15:34:04.127Z,19.69
2022-08-05T15:36:46.824Z,19.50
2022-08-05T15:41:00.017Z,19.47
2022-08-05T15:43:20.058Z,19.50
2022-08-05T15:46:24.953Z,19.54
2022-08-05T15:49:52.031Z,19.51
2022-08-05T15:52:52.885Z,19.21
2022-08-05T15:56:02.797Z,19.17
2022-08-05T15:59:06.624Z,19.07
2022-08-05T16:02:09.520Z,19.21
2022-08-05T16:05:16.771Z,19.45
2022-08-05T16:08:18.908Z,19.66
2022-08-05T16:11:40.109Z,19.51
2022-08-05T16:14:44.486Z,19.28
2022-08-05T16:17:58.057Z,19.22
2022-08-05T16:21:04.365Z,19.10
2022-08-05T16:24:39.496Z,19.68
2022-08-05T16:27:32.126Z,19.15
2022-08-05T16:30:53.042Z,18.83
2022-08-05T16:33:55.781Z,19.12
2022-08-05T16:36:58.116Z,19.75
2022-08-05T16:40:05.138Z,19.48
2022-08-05T16:43:09.494Z,19.36
2022-08-05T16:46:23.737Z,19.14
2022-08-05T16:49:27.148Z,18.71
2022-08-05T16:52:33.632Z,18.71
2022-08-05T16:55:47.155Z,18.99
2022-08-05T16:58:49.797Z,18.66
2022-08-05T17:01:54.240Z,18.45
2022-08-05T17:04:58.538Z,18.52
2022-08-05T17:08:00.770Z,18.49
2022-08-05T17:11:03.962Z,18.36
2022-08-05T17:14:06.713Z,18.22
2022-08-05T17:17:09.396Z,18.13
2022-08-05T17:20:17.283Z,18.12
2022-08-05T17:24:03.134Z,18.19
2022-08-05T17:26:42.010Z,18.21
2022-08-05T17:29:44.633Z,18.16
2022-08-05T17:32:49.098Z,18.37
2022-08-05T17:36:10.037Z,18.12
2022-08-05T17:39:24.224Z,17.94
2022-08-05T17:42:36.313Z,17.99
2022-08-05T17:45:44.610Z,17.98
2022-08-05T17:48:48.037Z,17.96
2022-08-05T17:51:51.533Z,18.08
2022-08-05T17:54:53.791Z,17.98
2022-08-05T17:57:57.547Z,17.89
2022-08-05T18:00:59.556Z,17.77
2022-08-05T18:04:04.443Z,17.68
2022-08-05T18:07:07.854Z,17.60
2022-08-05T18:10:21.026Z,17.55
2022-08-05T18:13:23.502Z,17.48
2022-08-05T18:16:28.146Z,17.67
2022-08-05T18:19:30.284Z,17.57
2022-08-05T18:22:46.141Z,17.51
2022-08-05T18:25:57.743Z,17.45
2022-08-05T18:29:02.419Z,17.43
2022-08-05T18:32:05.328Z,17.35
2022-08-05T18:35:07.759Z,17.38
2022-08-05T18:38:16.435Z,17.28
2022-08-05T18:41:53.342Z,17.19
2022-08-05T18:44:48.922Z,17.10
2022-08-05T18:47:56.788Z,17.06
2022-08-05T18:52:06.598Z,16.97
2022-08-05T18:54:41.358Z,16.86
2022-08-05T18:57:52.767Z,16.84
2022-08-05T19:00:56.452Z,16.76
2022-08-05T19:03:58.807Z,16.62
2022-08-05T19:07:01.853Z,16.49
2022-08-05T19:10:09.419Z,16.42
2022-08-05T19:13:15.706Z,16.36
2022-08-05T19:16:25.435Z,16.22
2022-08-05T19:19:32.409Z,16.17
2022-08-05T19:22:36.353Z,16.09
2022-08-05T19:25:43.730Z,16.05
2022-08-05T19:28:46.475Z,15.91
2022-08-05T19:31:50.931Z,15.87
2022-08-05T19:34:54.924Z,15.83
2022-08-05T19:38:05.937Z,15.71
2022-08-05T19:41:09.779Z,15.68
2022-08-05T19:44:13.507Z,15.66
2022-08-05T19:47:16.769Z,15.51
2022-08-05T19:50:20.175Z,15.63
2022-08-05T19:54:05.363Z,15.50
2022-08-05T19:56:44.994Z,15.44
2022-08-05T19:59:56.487Z,15.34
2022-08-05T20:03:13.978Z,15.36
2022-08-05T20:06:29.040Z,15.26
2022-08-05T20:09:54.351Z,15.29
2022-08-05T20:12:55.306Z,15.32
2022-08-05T20:15:57.909Z,15.30
2022-08-05T20:18:59.996Z,15.24
2022-08-05T20:22:03.893Z,15.32
2022-08-05T20:25:07.294Z,15.22
2022-08-05T20:28:13.677Z,15.13
2022-08-05T20:31:17.607Z,15.12
2022-08-05T20:34:24.288Z,15.09
2022-08-05T20:38:06.054Z,15.09
2022-08-05T20:40:48.495Z,15.10
2022-08-05T20:43:58.728Z,15.12
2022-08-05T20:47:07.392Z,15.07
2022-08-05T20:50:11.355Z,15.00
2022-08-05T20:53:16.210Z,14.95
2022-08-05T20:56:42.121Z,14.95
2022-08-05T20:59:46.104Z,14.83
2022-08-05T21:03:08.128Z,14.85
2022-08-05T21:06:27.772Z,14.83
2022-08-05T21:09:30.814Z,14.78
2022-08-05T21:12:36.895Z,14.79
2022-08-05T21:15:41.209Z,14.78
2022-08-05T21:18:48.743Z,14.81
2022-08-05T21:21:51.311Z,14.78
2022-08-05T21:24:54.875Z,14.81
2022-08-05T21:27:57.043Z,14.64
2022-08-05T21:30:59.886Z,14.69
2022-08-05T21:34:02.472Z,14.69
2022-08-05T21:37:05.358Z,14.62
2022-08-05T21:40:13.787Z,14.57
2022-08-05T21:43:24.750Z,14.71
2022-08-05T21:46:27.047Z,14.58
2022-08-05T21:49:59.272Z,14.54
2022-08-05T21:52:58.608Z,14.49
2022-08-05T21:56:16.499Z,14.42
2022-08-05T21:59:22.557Z,14.51
2022-08-05T22:02:27.675Z,14.55
2022-08-05T22:05:29.827Z,14.54
2022-08-05T22:08:52.603Z,14.51
2022-08-05T22:11:55.031Z,14.54
2022-08-05T22:14:59.227Z,14.54
2022-08-05T22:18:02.138Z,14.44
2022-08-05T22:21:14.139Z,14.44
2022-08-05T22:24:52.384Z,14.28
2022-08-05T22:28:08.641Z,14.28
2022-08-05T22:31:13.712Z,14.17
2022-08-05T22:34:20.336Z,14.14
2022-08-05T22:37:58.159Z,14.21
2022-08-05T22:40:54.867Z,14.03
2022-08-05T22:43:59.280Z,14.04
2022-08-05T22:47:05.716Z,14.01
2022-08-05T22:50:18.121Z,13.91
2022-08-05T22:53:24.592Z,13.91
2022-08-05T22:56:39.961Z,13.97
2022-08-05T22:59:51.802Z,13.84
2022-08-05T23:02:56.578Z,13.81
2022-08-05T23:06:00.455Z,13.83
2022-08-05T23:09:27.003Z,13.83
2022-08-05T23:12:25.862Z,13.90
2022-08-05T23:15:35.332Z,13.84
2022-08-05T23:18:38.608Z,13.80
2022-08-05T23:21:42.815Z,13.74
2022-08-05T23:24:51.271Z,13.83
2022-08-05T23:27:57.668Z,13.78
2022-08-05T23:31:16.883Z,13.76
2022-08-05T23:34:24.462Z,13.69
2022-08-05T23:37:27.434Z,13.71
2022-08-05T23:40:38.798Z,13.59
2022-08-05T23:44:05.832Z,13.67
2022-08-05T23:47:15.101Z,13.63
2022-08-05T23:50:20.296Z,13.55
2022-08-05T23:53:23.292Z,13.57
2022-08-05T23:56:30.569Z,13.56
